Time;durP1;ratioP1;P1;durP2;ratioP2;P2;SDS_P1;SDS_P2;PMS_P1;PMS_P2;Temp;Humidity;BMP_temperature;BMP_pressure;BME280_temperature;BME280_humidity;BME280_pressure;Samples;Min_cycle;Max_cycle;Signal;HPM_P1;HPM_P2
2022/01/01 00:02:15;;;;;;;7.50;3.97;;;16.10;66.60;;;;;;5068535;28;20045;-74
2022/01/01 00:04:42;;;;;;;6.70;3.65;;;16.00;68.40;;;;;;5060786;28;20088;-73
2022/01/01 00:07:10;;;;;;;6.22;3.75;;;15.80;67.10;;;;;;5061608;28;20103;-73
2022/01/01 00:09:38;;;;;;;7.88;4.03;;;16.30;68.30;;;;;;5065290;28;20131;-74
2022/01/01 00:12:06;;;;;;;8.25;4.50;;;15.70;64.40;;;;;;5060830;28;20512;-74
2022/01/01 00:14:33;;;;;;;6.00;4.00;;;16.00;62.90;;;;;;5062045;28;20490;-74
2022/01/01 00:16:59;;;;;;;7.57;3.90;;;16.40;68.40;;;;;;5072038;28;20052;-73
2022/01/01 00:19:26;;;;;;;5.68;3.63;;;16.30;68.60;;;;;;5068306;28;20077;-74
2022/01/01 00:21:53;;;;;;;10.95;4.50;;;15.60;63.00;;;;;;5060368;28;20053;-74
2022/01/01 00:24:21;;;;;;;6.97;4.13;;;16.10;68.50;;;;;;5057404;28;20053;-69
2022/01/01 00:26:48;;;;;;;6.68;4.28;;;16.20;68.60;;;;;;5057330;28;20059;-74
2022/01/01 00:29:15;;;;;;;6.03;3.92;;;;;;;;;;5052097;28;20138;-74
2022/01/01 00:31:42;;;;;;;6.30;3.83;;;16.20;68.50;;;;;;5044891;28;20502;-75
2022/01/01 00:34:09;;;;;;;7.32;4.45;;;16.20;68.30;;;;;;5032275;28;20140;-75
2022/01/01 00:36:36;;;;;;;8.60;4.85;;;;;;;;;;5033041;28;20080;-75
2022/01/01 00:39:02;;;;;;;8.75;5.47;;;16.10;68.30;;;;;;5032946;28;20081;-75
2022/01/01 00:41:31;;;;;;;7.28;3.95;;;16.10;61.40;;;;;;5032081;28;20100;-74
2022/01/01 00:43:58;;;;;;;7.47;4.38;;;;;;;;;;5031761;28;20140;-75
2022/01/01 00:46:25;;;;;;;9.70;4.43;;;16.00;68.30;;;;;;5032138;28;20136;-75
2022/01/01 00:48:53;;;;;;;5.38;4.00;;;;;;;;;;5033244;28;20494;-75
2022/01/01 00:51:20;;;;;;;6.53;4.30;;;15.60;68.10;;;;;;5031672;28;20119;-75
2022/01/01 00:53:47;;;;;;;7.53;4.57;;;16.20;68.50;;;;;;5031872;28;20132;-75
2022/01/01 00:56:13;;;;;;;8.95;4.50;;;16.10;68.70;;;;;;5031660;28;20140;-75
2022/01/01 00:58:42;;;;;;;6.20;4.10;;;15.60;67.70;;;;;;5031865;28;20140;-75
2022/01/01 01:01:09;;;;;;;6.60;3.80;;;16.00;68.60;;;;;;5031649;28;20061;-75
2022/01/01 01:03:35;;;;;;;7.15;4.00;;;16.10;68.80;;;;;;5031731;28;20088;-75
2022/01/01 01:06:02;;;;;;;6.45;4.10;;;16.10;61.60;;;;;;5032525;28;20083;-75
2022/01/01 01:08:30;;;;;;;6.95;5.07;;;16.10;68.80;;;;;;5031757;28;20088;-75
2022/01/01 01:10:57;;;;;;;6.32;4.20;;;15.40;65.70;;;;;;5031494;28;20065;-75
2022/01/01 01:13:26;;;;;;;7.60;4.40;;;;;;;;;;5031531;28;20053;-75
2022/01/01 01:15:54;;;;;;;7.13;4.68;;;15.50;68.20;;;;;;5031378;28;20064;-74
2022/01/01 01:18:21;;;;;;;7.25;4.32;;;16.10;68.70;;;;;;5031476;28;20081;-74
2022/01/01 01:20:48;;;;;;;6.90;4.32;;;16.00;68.80;;;;;;5031409;28;20152;-74
2022/01/01 01:23:14;;;;;;;5.85;4.18;;;15.90;62.70;;;;;;5032359;28;20128;-74
2022/01/01 01:25:42;;;;;;;7.03;3.92;;;15.90;68.40;;;;;;5030916;28;20129;-74
2022/01/01 01:28:09;;;;;;;6.80;3.90;;;;;;;;;;5030698;28;20053;-74
2022/01/01 01:30:39;;;;;;;7.47;4.28;;;16.00;61.60;;;;;;5032059;28;20132;-74
2022/01/01 01:33:07;;;;;;;6.00;4.00;;;16.90;69.30;;;;;;5031280;28;20550;-74
2022/01/01 01:35:34;;;;;;;6.55;4.22;;;15.90;68.80;;;;;;5031061;28;20137;-74
2022/01/01 01:38:01;;;;;;;7.25;3.92;;;;;;;;;;5031151;28;20136;-75
2022/01/01 01:40:28;;;;;;;7.85;4.60;;;16.00;68.70;;;;;;5032077;28;20136;-74
2022/01/01 01:42:55;;;;;;;7.05;3.90;;;15.90;68.50;;;;;;5030815;28;20076;-74
2022/01/01 01:45:23;;;;;;;6.05;4.03;;;;;;;;;;5031053;28;20144;-75
2022/01/01 01:47:50;;;;;;;5.75;3.92;;;15.90;68.70;;;;;;5031012;28;20053;-74
2022/01/01 01:50:19;;;;;;;7.45;4.32;;;16.00;61.60;;;;;;5031696;28;20088;-75
2022/01/01 01:52:48;;;;;;;6.47;4.38;;;16.00;68.80;;;;;;5031146;28;20132;-74
2022/01/01 01:55:15;;;;;;;7.25;4.05;;;16.00;68.80;;;;;;5030857;28;20144;-74
2022/01/01 01:57:42;;;;;;;6.35;4.00;;;15.90;67.40;;;;;;5032393;28;20088;-74
2022/01/01 02:00:19;;;;;;;5.90;4.00;;;16.80;69.00;;;;;;5030637;28;20557;-75
2022/01/01 02:02:46;;;;;;;8.15;4.00;;;15.90;68.50;;;;;;5030693;28;20445;-74
2022/01/01 02:05:13;;;;;;;6.60;3.75;;;16.20;68.70;;;;;;5030878;28;20088;-75
2022/01/01 02:07:41;;;;;;;6.35;4.22;;;16.00;61.60;;;;;;5030449;28;20077;-74
2022/01/01 02:10:09;;;;;;;7.70;4.25;;;15.50;64.60;;;;;;5030655;28;20538;-74
2022/01/01 02:12:35;;;;;;;5.10;3.88;;;15.40;68.30;;;;;;5030907;28;20049;-74
2022/01/01 02:15:12;;;;;;;5.32;3.83;;;15.60;67.10;;;;;;5031531;28;20136;-74
2022/01/01 02:17:39;;;;;;;8.20;4.32;;;15.90;68.50;;;;;;5030832;28;20053;-74
2022/01/01 02:20:13;;;;;;;6.40;4.05;;;15.20;68.40;;;;;;5030680;28;20057;-74
2022/01/01 02:22:46;;;;;;;6.55;4.30;;;16.00;68.80;;;;;;5030647;28;20099;-75
2022/01/01 02:25:13;;;;;;;6.93;4.35;;;15.90;68.80;;;;;;5030149;28;20103;-74
2022/01/01 02:27:40;;;;;;;6.53;4.00;;;16.10;68.90;;;;;;5030486;28;20057;-74
2022/01/01 02:30:07;;;;;;;7.68;4.13;;;15.40;64.30;;;;;;5031686;28;20056;-74
2022/01/01 02:32:34;;;;;;;7.43;4.00;;;;;;;;;;5030407;28;20141;-74
2022/01/01 02:35:01;;;;;;;6.97;4.22;;;16.00;68.90;;;;;;5030770;28;20136;-74
2022/01/01 02:37:31;;;;;;;7.85;4.55;;;16.00;68.60;;;;;;5030426;28;20136;-74
2022/01/01 02:39:58;;;;;;;6.72;4.03;;;;;;;;;;5031645;28;20046;-74
2022/01/01 02:42:25;;;;;;;6.72;4.18;;;15.90;68.50;;;;;;5035412;28;20045;-74
2022/01/01 02:44:53;;;;;;;5.97;3.92;;;15.90;68.80;;;;;;5034294;28;20064;-74
2022/01/01 02:47:21;;;;;;;6.15;4.20;;;15.90;68.50;;;;;;5033679;28;20053;-75
2022/01/01 02:49:48;;;;;;;7.93;4.40;;;15.90;68.70;;;;;;5050466;28;20057;-74
2022/01/01 02:52:15;;;;;;;5.75;4.15;;;15.60;68.40;;;;;;5034252;28;20164;-74
2022/01/01 02:54:43;;;;;;;6.15;3.90;;;16.10;68.90;;;;;;5034132;28;20137;-74
2022/01/01 02:57:09;;;;;;;6.30;3.95;;;15.90;68.80;;;;;;5049199;28;20128;-74
2022/01/01 02:59:36;;;;;;;7.93;4.15;;;15.20;68.20;;;;;;5054049;28;20144;-74
2022/01/01 03:02:03;;;;;;;6.05;4.13;;;;;;;;;;5053739;28;20128;-74
2022/01/01 03:04:30;;;;;;;5.85;3.90;;;15.40;68.30;;;;;;5053851;28;20132;-74
2022/01/01 03:06:58;;;;;;;5.80;4.18;;;15.90;68.90;;;;;;5053374;28;20145;-74
2022/01/01 03:09:34;;;;;;;7.53;4.32;;;15.90;68.60;;;;;;5054015;28;20049;-74
2022/01/01 03:12:03;;;;;;;5.97;4.20;;;15.40;68.40;;;;;;5053864;28;20562;-74
2022/01/01 03:14:29;;;;;;;6.57;4.15;;;15.90;63.40;;;;;;5052134;28;20135;-74
2022/01/01 03:16:56;;;;;;;6.05;3.95;;;15.50;68.60;;;;;;5053283;28;20081;-74
2022/01/01 03:19:23;;;;;;;7.35;4.47;;;16.60;69.00;;;;;;5051694;28;20135;-75
2022/01/01 03:21:50;;;;;;;6.45;4.15;;;15.80;63.70;;;;;;5053285;28;20087;-74
2022/01/01 03:24:16;;;;;;;7.05;3.92;;;15.80;68.50;;;;;;5053254;28;20554;-74
2022/01/01 03:26:43;;;;;;;7.88;4.38;;;15.90;68.60;;;;;;5053325;28;20092;-75
2022/01/01 03:29:11;;;;;;;6.25;4.38;;;15.50;64.10;;;;;;5053623;28;20139;-74
2022/01/01 03:31:38;;;;;;;6.60;4.00;;;15.50;68.70;;;;;;5051587;28;20057;-74
2022/01/01 03:34:05;;;;;;;6.82;4.40;;;15.10;68.50;;;;;;5054342;28;20525;-74
2022/01/01 03:36:32;;;;;;;7.85;4.72;;;15.70;63.00;;;;;;5053084;28;20577;-74
2022/01/01 03:38:59;;;;;;;8.13;4.53;;;15.80;68.50;;;;;;5053329;28;20148;-75
2022/01/01 03:41:26;;;;;;;6.28;4.30;;;15.80;63.00;;;;;;5052987;28;20490;-75
2022/01/01 03:43:53;;;;;;;8.07;4.80;;;15.90;68.90;;;;;;5053047;28;20055;-74
2022/01/01 03:46:21;;;;;;;6.75;4.40;;;15.80;68.50;;;;;;5049732;28;20053;-74
2022/01/01 03:48:47;;;;;;;7.85;4.65;;;15.80;68.80;;;;;;5033296;28;20162;-74
2022/01/01 03:51:15;;;;;;;9.05;5.13;;;;;;;;;;5032561;28;20089;-74
2022/01/01 03:53:41;;;;;;;7.95;5.22;;;15.60;68.50;;;;;;5032895;28;20481;-74
2022/01/01 03:56:09;;;;;;;8.75;4.80;;;;;;;;;;5032917;28;20092;-75
2022/01/01 03:58:36;;;;;;;8.93;5.10;;;;;;;;;;5033238;28;20560;-74
2022/01/01 04:01:03;;;;;;;9.10;5.18;;;15.90;68.60;;;;;;5032872;28;20467;-74
2022/01/01 04:03:31;;;;;;;7.68;4.63;;;15.80;68.60;;;;;;5033893;28;20483;-74
2022/01/01 04:05:59;;;;;;;7.38;4.68;;;;;;;;;;5034008;28;20125;-74
2022/01/01 04:08:25;;;;;;;7.05;4.80;;;15.90;68.80;;;;;;5032888;28;20111;-75
2022/01/01 04:10:52;;;;;;;8.20;4.63;;;15.80;68.60;;;;;;5032608;28;20137;-74
2022/01/01 04:13:19;;;;;;;8.02;4.93;;;;;;;;;;5032649;28;20133;-74
2022/01/01 04:15:46;;;;;;;7.68;5.05;;;15.60;68.60;;;;;;5032661;28;20053;-75
2022/01/01 04:18:18;;;;;;;9.23;5.25;;;15.50;68.70;;;;;;5032449;28;20077;-74
2022/01/01 04:20:47;;;;;;;7.18;5.40;;;15.20;61.20;;;;;;5043047;28;20421;-74
2022/01/01 04:23:14;;;;;;;7.28;4.82;;;15.90;68.70;;;;;;5052335;28;20061;-75
2022/01/01 04:25:40;;;;;;;8.88;5.30;;;15.30;68.40;;;;;;5052287;28;20139;-75
2022/01/01 04:28:08;;;;;;;8.38;5.00;;;;;;;;;;5052156;28;20228;-75
2022/01/01 04:30:34;;;;;;;8.80;5.20;;;15.80;68.90;;;;;;5052285;28;20095;-74
2022/01/01 04:33:01;;;;;;;8.55;5.32;;;;;;;;;;5052183;28;20143;-74
2022/01/01 04:35:28;;;;;;;7.63;5.32;;;15.80;68.60;;;;;;5051779;28;20131;-75
2022/01/01 04:37:59;;;;;;;7.60;4.93;;;15.10;66.50;;;;;;5035871;28;20495;-75
2022/01/01 04:40:26;;;;;;;8.27;5.20;;;15.00;66.10;;;;;;5032006;28;20084;-75
2022/01/01 04:42:53;;;;;;;8.07;5.68;;;15.70;68.70;;;;;;5031872;28;20128;-74
2022/01/01 04:45:20;;;;;;;7.38;5.20;;;;;;;;;;5031831;28;20137;-74
2022/01/01 04:47:47;;;;;;;6.68;5.18;;;15.30;68.40;;;;;;5031917;28;20136;-75
2022/01/01 04:50:14;;;;;;;9.40;5.78;;;;;;;;;;5031983;28;20084;-75
2022/01/01 04:52:42;;;;;;;7.50;4.82;;;16.60;69.40;;;;;;5032095;28;20055;-74
2022/01/01 04:55:11;;;;;;;7.60;5.30;;;15.70;68.90;;;;;;5032059;28;20057;-74
2022/01/01 04:57:38;;;;;;;7.43;4.78;;;;;;;;;;5031484;28;20085;-74
2022/01/01 05:00:07;;;;;;;7.80;5.22;;;15.70;61.40;;;;;;5031755;28;20128;-74
2022/01/01 05:02:34;;;;;;;7.80;4.95;;;;;;;;;;5043850;28;20119;-74
2022/01/01 05:05:01;;;;;;;7.93;5.53;;;15.70;68.60;;;;;;5050877;28;20052;-74
2022/01/01 05:07:28;;;;;;;8.07;5.43;;;15.60;68.90;;;;;;5051325;28;20083;-75
2022/01/01 05:09:54;;;;;;;8.82;5.70;;;15.70;63.80;;;;;;5047382;28;20087;-74
2022/01/01 05:12:22;;;;;;;8.32;5.45;;;15.20;68.30;;;;;;5031646;28;20465;-74
2022/01/01 05:14:49;;;;;;;8.25;5.60;;;15.80;68.90;;;;;;5031638;28;20522;-75
2022/01/01 05:17:17;;;;;;;8.95;5.60;;;15.70;68.60;;;;;;5031131;28;20080;-75
2022/01/01 05:19:44;;;;;;;9.18;5.90;;;15.80;68.60;;;;;;5031351;28;20060;-75
2022/01/01 05:22:11;;;;;;;10.73;6.55;;;15.70;64.80;;;;;;5031684;28;20562;-74
2022/01/01 05:24:37;;;;;;;10.43;6.00;;;15.70;68.60;;;;;;5032276;28;20459;-75
2022/01/01 05:27:04;;;;;;;8.35;5.78;;;15.40;68.50;;;;;;5032158;28;20141;-74
2022/01/01 05:29:32;;;;;;;8.63;6.55;;;15.80;66.80;;;;;;5031161;28;20451;-74
2022/01/01 05:31:59;;;;;;;8.18;6.05;;;15.90;66.80;;;;;;5031262;28;20542;-74
2022/01/01 05:34:26;;;;;;;9.43;6.18;;;15.70;68.60;;;;;;5031377;28;20132;-75
2022/01/01 05:36:53;;;;;;;8.60;6.45;;;;;;;;;;5030880;28;20061;-74
2022/01/01 05:39:20;;;;;;;9.40;6.03;;;15.70;68.60;;;;;;5031512;28;20140;-75
2022/01/01 05:41:46;;;;;;;11.15;6.45;;;15.50;68.80;;;;;;5031230;28;20143;-75
2022/01/01 05:44:13;;;;;;;8.95;6.10;;;;;;;;;;5032108;28;20132;-74
2022/01/01 05:46:42;;;;;;;8.73;6.40;;;15.60;68.90;;;;;;5030820;28;20551;-75
2022/01/01 05:49:08;;;;;;;9.88;6.70;;;15.70;68.90;;;;;;5047303;28;20053;-75
2022/01/01 05:51:36;;;;;;;9.27;6.45;;;;;;;;;;5030926;28;20093;-74
2022/01/01 05:54:02;;;;;;;9.32;6.40;;;15.70;68.60;;;;;;5030830;28;20063;-74
2022/01/01 05:56:30;;;;;;;9.52;6.60;;;;;;;;;;5030510;28;20228;-74
2022/01/01 05:58:57;;;;;;;10.02;6.60;;;15.70;68.70;;;;;;5030944;28;20132;-74
2022/01/01 06:01:24;;;;;;;8.60;6.30;;;15.70;64.10;;;;;;5031799;28;20144;-74
2022/01/01 06:03:52;;;;;;;7.78;5.93;;;15.70;68.80;;;;;;5030599;28;20072;-74
2022/01/01 06:06:19;;;;;;;10.82;7.00;;;;;;;;;;5030351;28;20137;-74
2022/01/01 06:08:46;;;;;;;10.23;6.70;;;;;;;;;;5031052;28;20140;-74
2022/01/01 06:11:13;;;;;;;8.48;6.57;;;15.70;68.80;;;;;;5031596;28;20137;-75
2022/01/01 06:13:39;;;;;;;9.77;6.75;;;15.40;68.40;;;;;;5030895;28;20137;-74
2022/01/01 06:16:06;;;;;;;8.88;6.72;;;15.20;66.20;;;;;;5043720;28;20083;-74
2022/01/01 06:18:33;;;;;;;9.88;6.70;;;15.70;68.50;;;;;;5054749;28;20136;-74
2022/01/01 06:21:03;;;;;;;10.13;7.03;;;15.40;68.60;;;;;;5054698;28;20164;-75
2022/01/01 06:23:31;;;;;;;9.52;6.72;;;15.60;62.40;;;;;;5054892;28;20063;-74
2022/01/01 06:25:58;;;;;;;9.73;6.75;;;;;;;;;;5053039;28;20052;-74
2022/01/01 06:28:24;;;;;;;11.15;7.45;;;15.60;63.80;;;;;;5043123;28;20140;-74
2022/01/01 06:30:51;;;;;;;9.75;6.80;;;15.00;68.00;;;;;;5044044;28;20136;-74
2022/01/01 06:33:19;;;;;;;9.80;7.18;;;15.70;68.60;;;;;;5039634;28;20084;-74
2022/01/01 06:35:47;;;;;;;12.02;7.53;;;;;;;;;;5034282;28;20549;-74
2022/01/01 06:38:15;;;;;;;10.82;6.85;;;15.70;68.60;;;;;;5034561;28;20089;-74
2022/01/01 06:40:42;;;;;;;10.18;7.78;;;15.60;68.50;;;;;;5034438;28;20161;-74
2022/01/01 06:43:09;;;;;;;10.40;7.65;;;15.20;67.00;;;;;;5034207;28;20132;-74
2022/01/01 06:45:36;;;;;;;10.32;7.35;;;15.60;68.20;;;;;;5033973;28;20084;-74
2022/01/01 06:48:03;;;;;;;10.63;7.47;;;;;;;;;;5034299;28;20084;-74
2022/01/01 06:50:30;;;;;;;11.27;7.45;;;15.70;68.20;;;;;;5035210;28;20144;-74
2022/01/01 06:52:56;;;;;;;11.65;7.28;;;15.80;68.50;;;;;;5034033;28;20132;-74
2022/01/01 06:55:24;;;;;;;10.18;7.55;;;15.70;61.00;;;;;;5033721;28;20073;-74
2022/01/01 06:57:51;;;;;;;9.77;7.22;;;15.50;64.60;;;;;;5034209;28;20414;-74
2022/01/01 07:00:18;;;;;;;9.35;7.07;;;15.20;68.20;;;;;;5034148;28;20132;-74
2022/01/01 07:02:46;;;;;;;11.23;7.50;;;15.70;61.00;;;;;;5033830;28;20144;-74
2022/01/01 07:05:13;;;;;;;11.48;7.28;;;15.10;67.80;;;;;;5035047;28;20132;-74
2022/01/01 07:07:40;;;;;;;10.25;7.40;;;16.00;64.90;;;;;;5053692;28;20084;-74
2022/01/01 07:10:07;;;;;;;9.18;6.93;;;15.70;68.20;;;;;;5053924;28;20561;-74
2022/01/01 07:12:36;;;;;;;10.23;7.50;;;15.70;68.30;;;;;;5053869;28;20137;-74
2022/01/01 07:15:03;;;;;;;9.80;7.88;;;15.90;68.20;;;;;;5053695;28;20128;-74
2022/01/01 07:17:30;;;;;;;12.05;7.75;;;;;;;;;;5053469;28;20506;-74
2022/01/01 07:19:56;;;;;;;10.05;7.72;;;15.80;68.40;;;;;;5053604;28;20143;-74
2022/01/01 07:22:23;;;;;;;11.32;7.25;;;16.00;68.30;;;;;;5050944;28;20077;-74
2022/01/01 07:24:50;;;;;;;10.38;7.47;;;15.80;65.70;;;;;;5033552;28;20133;-75
2022/01/01 07:27:17;;;;;;;9.30;6.72;;;15.80;68.40;;;;;;5032437;28;20053;-74
2022/01/01 07:29:45;;;;;;;11.10;7.45;;;15.80;61.00;;;;;;5033016;28;20128;-74
2022/01/01 07:32:12;;;;;;;12.27;8.23;;;;;;;;;;5033696;28;20458;-75
2022/01/01 07:34:39;;;;;;;12.02;7.53;;;15.80;68.20;;;;;;5033632;28;20049;-74
2022/01/01 07:37:06;;;;;;;10.55;7.72;;;15.80;62.00;;;;;;5033069;28;20144;-74
2022/01/01 07:39:33;;;;;;;10.40;7.80;;;15.30;67.80;;;;;;5034274;28;20132;-74
2022/01/01 07:41:59;;;;;;;10.48;7.70;;;15.70;68.40;;;;;;5033533;28;20053;-75
2022/01/01 07:44:27;;;;;;;10.20;6.93;;;;;;;;;;5033236;28;20125;-75
2022/01/01 07:46:55;;;;;;;10.40;7.32;;;15.70;68.10;;;;;;5033058;28;20132;-75
2022/01/01 07:49:22;;;;;;;10.20;7.63;;;;;;;;;;5032626;28;20136;-75
2022/01/01 07:51:49;;;;;;;9.88;7.38;;;15.70;68.10;;;;;;5050964;28;20140;-73
2022/01/01 07:54:17;;;;;;;10.88;7.65;;;;;;;;;;5053071;28;20135;-75
2022/01/01 07:56:43;;;;;;;10.23;7.00;;;15.90;68.20;;;;;;5051522;28;20155;-73
2022/01/01 07:59:10;;;;;;;10.88;7.07;;;15.80;68.20;;;;;;5052870;28;20048;-74
2022/01/01 08:01:37;;;;;;;11.65;7.47;;;15.80;64.20;;;;;;5052857;28;20136;-74
2022/01/01 08:04:05;;;;;;;11.60;7.68;;;15.30;68.10;;;;;;5052607;28;20049;-74
2022/01/01 08:06:33;;;;;;;10.55;7.30;;;15.80;68.10;;;;;;5052547;28;20132;-74
2022/01/01 08:09:00;;;;;;;11.90;7.97;;;16.00;68.30;;;;;;5052728;28;20084;-74
2022/01/01 08:11:27;;;;;;;11.15;7.15;;;;;;;;;;5045222;28;20463;-75
2022/01/01 08:13:55;;;;;;;9.30;6.55;;;15.90;68.30;;;;;;5032968;28;20053;-73
2022/01/01 08:16:21;;;;;;;9.23;6.88;;;15.40;65.30;;;;;;5041815;28;20132;-74
2022/01/01 08:18:48;;;;;;;9.45;6.50;;;15.50;68.00;;;;;;5052135;28;20136;-74
2022/01/01 08:21:16;;;;;;;10.48;6.95;;;16.00;68.10;;;;;;5043495;28;20085;-73
2022/01/01 08:23:43;;;;;;;11.23;6.82;;;;;;;;;;5049172;28;20143;-74
2022/01/01 08:26:12;;;;;;;10.60;6.68;;;16.00;68.20;;;;;;5043671;28;20132;-74
2022/01/01 08:28:39;;;;;;;10.15;6.95;;;16.10;68.00;;;;;;5052124;28;20052;-74
2022/01/01 08:31:06;;;;;;;8.63;6.35;;;16.20;67.20;;;;;;5052188;28;20140;-74
2022/01/01 08:33:33;;;;;;;10.98;7.00;;;15.30;67.70;;;;;;5051932;28;20128;-74
2022/01/01 08:36:03;;;;;;;11.90;7.05;;;;;;;;;;5051905;28;20057;-75
2022/01/01 08:38:31;;;;;;;8.80;6.30;;;16.20;61.90;;;;;;5052198;28;20131;-74
2022/01/01 08:40:59;;;;;;;9.93;6.20;;;16.20;66.60;;;;;;5051449;28;20053;-74
2022/01/01 08:43:26;;;;;;;11.27;6.68;;;16.40;63.80;;;;;;5051870;28;20135;-74
2022/01/01 08:45:53;;;;;;;11.40;6.35;;;16.40;67.90;;;;;;5051482;28;20049;-74
2022/01/01 08:48:19;;;;;;;9.35;6.20;;;16.50;67.70;;;;;;5051781;28;20068;-73
2022/01/01 08:50:46;;;;;;;9.23;5.80;;;16.50;64.20;;;;;;5049126;28;20676;-73
2022/01/01 08:53:13;;;;;;;7.97;5.80;;;16.30;67.70;;;;;;5051744;28;20136;-74
2022/01/01 08:55:41;;;;;;;9.20;5.93;;;16.40;60.60;;;;;;5050050;28;20087;-74
2022/01/01 08:58:08;;;;;;;8.00;5.65;;;;;;;;;;5051291;28;20067;-75
2022/01/01 09:00:35;;;;;;;8.85;5.82;;;16.40;67.50;;;;;;5047415;28;20134;-73
2022/01/01 09:03:02;;;;;;;7.28;5.43;;;15.90;67.30;;;;;;5035914;28;20135;-73
2022/01/01 09:05:29;;;;;;;9.32;5.95;;;16.40;62.50;;;;;;5049105;28;20127;-74
2022/01/01 09:07:55;;;;;;;9.00;5.88;;;15.80;67.00;;;;;;5051143;28;20128;-73
2022/01/01 09:10:22;;;;;;;8.82;5.65;;;16.00;67.20;;;;;;5050362;28;20128;-73
2022/01/01 09:12:51;;;;;;;8.98;6.03;;;16.70;67.70;;;;;;5034718;28;20085;-73
2022/01/01 09:15:17;;;;;;;8.48;5.35;;;15.70;66.90;;;;;;5050959;28;20061;-73
2022/01/01 09:17:44;;;;;;;8.65;5.65;;;;;;;;;;5064230;28;20149;-73
2022/01/01 09:20:12;;;;;;;8.88;5.90;;;16.70;67.60;;;;;;5050195;28;20131;-72
2022/01/01 09:22:38;;;;;;;7.50;5.47;;;16.80;64.70;;;;;;5048161;28;20140;-73
2022/01/01 09:25:06;;;;;;;8.63;5.85;;;16.00;60.20;;;;;;5050522;28;20476;-73
2022/01/01 09:27:33;;;;;;;9.82;5.90;;;16.60;67.40;;;;;;5050609;28;20481;-72
2022/01/01 09:30:01;;;;;;;8.10;5.32;;;16.80;66.80;;;;;;5067342;28;20063;-72
2022/01/01 09:32:27;;;;;;;10.32;5.45;;;16.10;66.30;;;;;;5050715;28;20136;-73
2022/01/01 09:34:55;;;;;;;8.25;5.35;;;16.80;67.60;;;;;;5050754;28;20131;-73
2022/01/01 09:37:22;;;;;;;8.85;5.45;;;16.60;67.50;;;;;;5050023;28;20048;-73
2022/01/01 09:39:49;;;;;;;6.90;4.90;;;16.80;67.30;;;;;;5049300;28;20728;-73
2022/01/01 09:42:15;;;;;;;8.98;5.30;;;15.90;64.30;;;;;;5050537;28;20048;-74
2022/01/01 09:44:42;;;;;;;9.25;5.43;;;16.20;67.10;;;;;;5049227;28;20052;-73
2022/01/01 09:47:11;;;;;;;8.75;5.45;;;17.30;67.80;;;;;;5050053;28;20132;-73
2022/01/01 09:49:38;;;;;;;7.95;5.30;;;;;;;;;;5049617;28;20139;-74
2022/01/01 09:52:05;;;;;;;7.70;5.68;;;16.90;67.20;;;;;;5049202;28;20128;-74
2022/01/01 09:54:32;;;;;;;8.52;5.65;;;16.00;62.20;;;;;;5050374;28;20084;-74
2022/01/01 09:56:59;;;;;;;7.03;4.75;;;16.20;67.00;;;;;;5049860;28;20053;-74
2022/01/01 09:59:26;;;;;;;8.63;5.38;;;;;;;;;;5050363;28;20075;-75
2022/01/01 10:01:53;;;;;;;7.75;5.30;;;16.90;67.40;;;;;;5050033;28;20132;-74
2022/01/01 10:04:21;;;;;;;8.63;5.43;;;16.90;60.30;;;;;;5049464;28;20124;-74
2022/01/01 10:07:01;;;;;;;7.75;5.00;;;16.90;60.30;;;;;;5049845;28;20132;-74
2022/01/01 10:09:31;;;;;;;6.93;4.93;;;16.90;60.40;;;;;;5048333;28;20053;-74
2022/01/01 10:11:58;;;;;;;7.57;4.93;;;;;;;;;;5050177;28;20080;-73
2022/01/01 10:14:34;;;;;;;7.53;4.72;;;17.10;67.50;;;;;;5050047;28;20128;-74
2022/01/01 10:17:01;;;;;;;6.43;4.82;;;17.00;67.20;;;;;;5049834;28;20077;-74
2022/01/01 10:19:31;;;;;;;7.43;5.25;;;16.90;61.30;;;;;;5049982;28;20135;-74
2022/01/01 10:22:02;;;;;;;6.80;5.03;;;15.90;66.50;;;;;;5049859;28;20076;-74
2022/01/01 10:27:42;;;;;;;7.07;4.78;;;17.00;67.30;;;;;;5049742;28;20049;-73
2022/01/01 10:30:01;;;;;;;5.77;4.67;;;17.70;66.50;;;;;;5048601;28;20037;-73
2022/01/01 10:32:28;;;;;;;5.80;4.40;;;16.90;67.00;;;;;;5049404;28;20477;-74
2022/01/01 10:34:59;;;;;;;7.65;4.68;;;16.90;60.20;;;;;;5049366;28;20128;-74
2022/01/01 10:37:29;;;;;;;5.85;4.82;;;16.50;67.00;;;;;;5049702;28;20130;-74
2022/01/01 10:39:57;;;;;;;6.25;4.55;;;16.80;67.20;;;;;;5050217;28;20061;-73
2022/01/01 10:42:23;;;;;;;7.70;4.63;;;16.90;66.80;;;;;;5050628;28;20087;-74
2022/01/01 10:44:51;;;;;;;5.85;4.25;;;16.90;67.20;;;;;;5049479;28;20490;-75
2022/01/01 10:47:24;;;;;;;5.72;4.22;;;17.10;67.30;;;;;;5049079;28;20175;-73
2022/01/01 10:50:13;;;;;;;6.43;4.63;;;16.90;61.40;;;;;;5048945;28;20063;-73
2022/01/01 10:52:45;;;;;;;6.68;4.70;;;16.90;67.10;;;;;;5049495;28;20049;-72
2022/01/01 10:55:12;;;;;;;7.03;4.40;;;17.10;66.70;;;;;;5049436;28;20056;-73
2022/01/01 10:57:40;;;;;;;8.23;4.93;;;17.00;67.20;;;;;;5048184;28;20057;-72
2022/01/01 11:00:13;;;;;;;6.65;4.32;;;16.90;60.50;;;;;;5047049;28;20045;-72
2022/01/01 11:02:40;;;;;;;6.50;4.25;;;16.80;61.10;;;;;;5052140;28;20053;-73
2022/01/01 11:05:08;;;;;;;6.20;4.28;;;17.10;67.50;;;;;;5052883;28;20137;-72
2022/01/01 11:07:35;;;;;;;7.45;4.40;;;17.10;67.20;;;;;;5052048;28;20049;-72
2022/01/01 11:10:04;;;;;;;6.47;4.68;;;16.90;60.50;;;;;;5053121;28;20132;-73
2022/01/01 11:12:31;;;;;;;8.18;4.68;;;17.80;67.70;;;;;;5052386;28;20516;-72
2022/01/01 11:15:01;;;;;;;5.30;4.40;;;16.80;60.50;;;;;;5052225;28;20095;-72
2022/01/01 11:17:28;;;;;;;6.22;4.40;;;;;;;;;;5052520;28;20110;-73
2022/01/01 11:19:55;;;;;;;5.80;4.38;;;16.70;67.40;;;;;;5050713;28;20585;-73
2022/01/01 11:22:22;;;;;;;6.90;4.53;;;16.80;67.20;;;;;;5053610;28;20128;-71
2022/01/01 11:24:48;;;;;;;5.93;4.18;;;16.40;67.20;;;;;;5054433;28;20049;-73
2022/01/01 11:27:16;;;;;;;6.47;4.20;;;16.30;67.20;;;;;;5052310;28;20477;-72
2022/01/01 11:29:49;;;;;;;8.05;4.40;;;16.90;67.50;;;;;;5053151;28;20152;-71
2022/01/01 11:32:15;;;;;;;6.68;4.38;;;17.00;67.70;;;;;;5054094;28;20106;-72
2022/01/01 11:34:42;;;;;;;5.40;3.95;;;;;;;;;;5052982;28;20088;-73
2022/01/01 11:37:09;;;;;;;6.90;4.15;;;16.60;67.10;;;;;;5053225;28;20139;-72
2022/01/01 11:39:36;;;;;;;5.25;4.00;;;;;;;;;;5052449;28;20061;-73
2022/01/01 11:42:10;;;;;;;5.95;3.90;;;17.60;67.60;;;;;;5054224;28;20049;-73
2022/01/01 11:44:41;;;;;;;5.45;4.05;;;16.80;67.50;;;;;;5053093;28;20136;-72
2022/01/01 11:47:17;;;;;;;6.03;4.13;;;17.70;68.10;;;;;;5052589;28;20048;-72
2022/01/01 11:49:43;;;;;;;7.35;4.45;;;16.10;67.20;;;;;;5052934;28;20114;-72
2022/01/01 11:52:10;;;;;;;6.05;3.90;;;17.50;67.90;;;;;;5052406;28;20144;-72
2022/01/01 11:54:38;;;;;;;5.95;4.15;;;16.60;65.40;;;;;;5053082;28;20565;-72
2022/01/01 11:57:19;;;;;;;8.65;4.30;;;16.90;63.60;;;;;;5052717;28;20060;-73
2022/01/01 11:59:52;;;;;;;6.15;3.70;;;16.70;67.90;;;;;;5052672;28;20068;-72
2022/01/01 12:02:44;;;;;;;6.03;4.00;;;16.80;67.90;;;;;;5052923;28;20429;-72
2022/01/01 12:05:15;;;;;;;6.43;4.10;;;16.50;67.90;;;;;;5052793;28;20057;-72
2022/01/01 12:07:48;;;;;;;5.15;3.58;;;16.70;67.80;;;;;;5052387;28;20123;-72
2022/01/01 12:10:17;;;;;;;5.80;4.07;;;16.80;68.20;;;;;;5052534;28;20151;-73
2022/01/01 12:12:44;;;;;;;6.53;4.53;;;16.60;68.00;;;;;;5052259;28;20554;-72
2022/01/01 12:15:32;;;;;;;6.70;3.78;;;16.60;61.20;;;;;;5052494;28;20049;-74
2022/01/01 12:18:01;;;;;;;6.55;3.90;;;16.60;61.30;;;;;;5053713;28;20140;-72
2022/01/01 12:20:29;;;;;;;6.40;3.80;;;16.70;63.10;;;;;;5052804;28;20052;-70
2022/01/01 12:22:56;;;;;;;4.90;3.53;;;15.90;67.50;;;;;;5052439;28;20494;-70
2022/01/01 12:25:24;;;;;;;6.70;4.10;;;16.60;61.20;;;;;;5050865;28;20413;-70
2022/01/01 12:27:51;;;;;;;5.00;3.40;;;16.40;62.80;;;;;;5043100;28;20060;-70
2022/01/01 12:30:30;;;;;;;5.60;4.07;;;16.60;67.50;;;;;;5046835;28;20057;-70
2022/01/01 12:32:57;;;;;;;4.93;3.50;;;;;;;;;;5049555;28;20059;-70
2022/01/01 12:35:38;;;;;;;5.78;3.60;;;17.40;65.50;;;;;;5048724;28;20136;-75
2022/01/01 12:38:06;;;;;;;5.80;3.60;;;15.80;61.80;;;;;;5046729;28;20348;-73
2022/01/01 12:40:33;;;;;;;6.85;3.70;;;17.10;68.00;;;;;;5049516;28;20151;-72
2022/01/01 12:43:08;;;;;;;4.97;3.60;;;17.40;68.20;;;;;;5040562;28;20148;-72
2022/01/01 12:45:36;;;;;;;5.40;3.45;;;16.50;67.60;;;;;;5031582;28;20053;-71
2022/01/01 12:48:03;;;;;;;7.90;3.70;;;16.50;68.00;;;;;;5039506;28;20128;-72
2022/01/01 12:50:30;;;;;;;5.35;3.58;;;;;;;;;;5051597;28;20056;-72
2022/01/01 12:52:58;;;;;;;5.13;3.20;;;16.20;67.80;;;;;;5051116;28;20147;-74
2022/01/01 12:55:25;;;;;;;8.50;3.90;;;17.50;68.50;;;;;;5052214;28;20053;-73
2022/01/01 12:58:06;;;;;;;6.82;3.60;;;16.80;68.10;;;;;;5050878;28;20052;-72
2022/01/01 13:00:37;;;;;;;6.65;3.25;;;;;;;;;;5050368;28;20057;-73
2022/01/01 13:03:06;;;;;;;6.32;3.58;;;16.60;67.60;;;;;;5050167;28;20044;-73
2022/01/01 13:05:33;;;;;;;5.57;3.22;;;17.30;63.80;;;;;;5050822;28;20053;-73
2022/01/01 13:07:59;;;;;;;5.10;3.10;;;16.60;67.80;;;;;;5047779;28;20084;-72